sensor_id;sensor_type;location;lat;lon;timestamp;temperature;humidity
46752;DHT22;32497;48.936;9.270;2022-11-09T00:01:54;10.10;80.10
46752;DHT22;32497;48.936;9.270;2022-11-09T00:06:55;10.30;79.20
46752;DHT22;32497;48.936;9.270;2022-11-09T00:11:56;10.60;77.90
46752;DHT22;32497;48.936;9.270;2022-11-09T00:16:59;10.70;77.80
46752;DHT22;32497;48.936;9.270;2022-11-09T00:22:00;10.70;77.50
46752;DHT22;32497;48.936;9.270;2022-11-09T00:27:01;10.70;77.30
46752;DHT22;32497;48.936;9.270;2022-11-09T00:32:04;10.70;77.80
46752;DHT22;32497;48.936;9.270;2022-11-09T00:37:06;10.70;78.30
46752;DHT22;32497;48.936;9.270;2022-11-09T00:42:07;10.60;78.60
46752;DHT22;32497;48.936;9.270;2022-11-09T00:47:09;10.60;78.80
46752;DHT22;32497;48.936;9.270;2022-11-09T00:52:10;10.60;78.70
46752;DHT22;32497;48.936;9.270;2022-11-09T00:57:11;10.70;78.50
46752;DHT22;32497;48.936;9.270;2022-11-09T01:02:14;10.70;78.40
46752;DHT22;32497;48.936;9.270;2022-11-09T01:07:15;10.70;78.30
46752;DHT22;32497;48.936;9.270;2022-11-09T01:12:16;10.80;78.10
46752;DHT22;32497;48.936;9.270;2022-11-09T01:17:18;10.80;78.10
46752;DHT22;32497;48.936;9.270;2022-11-09T01:22:21;10.90;78.20
46752;DHT22;32497;48.936;9.270;2022-11-09T01:27:22;10.90;78.50
46752;DHT22;32497;48.936;9.270;2022-11-09T01:32:25;10.90;78.60
46752;DHT22;32497;48.936;9.270;2022-11-09T01:37:26;11.00;78.30
46752;DHT22;32497;48.936;9.270;2022-11-09T01:42:28;11.10;77.20
46752;DHT22;32497;48.936;9.270;2022-11-09T01:47:30;11.30;77.00
46752;DHT22;32497;48.936;9.270;2022-11-09T01:52:34;11.40;77.10
46752;DHT22;32497;48.936;9.270;2022-11-09T01:57:38;11.50;76.80
46752;DHT22;32497;48.936;9.270;2022-11-09T02:02:53;11.60;75.30
46752;DHT22;32497;48.936;9.270;2022-11-09T02:07:57;11.60;75.20
46752;DHT22;32497;48.936;9.270;2022-11-09T02:12:58;11.60;75.20
46752;DHT22;32497;48.936;9.270;2022-11-09T02:18:03;11.40;76.60
46752;DHT22;32497;48.936;9.270;2022-11-09T02:23:06;11.10;78.10
46752;DHT22;32497;48.936;9.270;2022-11-09T02:28:07;10.90;79.50
46752;DHT22;32497;48.936;9.270;2022-11-09T02:33:09;11.00;79.90
46752;DHT22;32497;48.936;9.270;2022-11-09T02:38:13;11.00;79.10
46752;DHT22;32497;48.936;9.270;2022-11-09T02:43:14;11.10;78.90
46752;DHT22;32497;48.936;9.270;2022-11-09T02:48:17;11.10;78.00
46752;DHT22;32497;48.936;9.270;2022-11-09T02:53:20;11.20;78.00
46752;DHT22;32497;48.936;9.270;2022-11-09T02:58:21;11.40;77.60
46752;DHT22;32497;48.936;9.270;2022-11-09T03:03:22;11.40;76.20
46752;DHT22;32497;48.936;9.270;2022-11-09T03:08:26;11.50;76.30
46752;DHT22;32497;48.936;9.270;2022-11-09T03:13:27;11.60;76.70
46752;DHT22;32497;48.936;9.270;2022-11-09T03:18:29;11.60;78.80
46752;DHT22;32497;48.936;9.270;2022-11-09T03:23:32;11.30;80.60
46752;DHT22;32497;48.936;9.270;2022-11-09T03:28:34;11.20;82.40
46752;DHT22;32497;48.936;9.270;2022-11-09T03:33:36;10.90;84.40
46752;DHT22;32497;48.936;9.270;2022-11-09T03:38:39;10.80;86.40
46752;DHT22;32497;48.936;9.270;2022-11-09T03:43:40;10.80;87.50
46752;DHT22;32497;48.936;9.270;2022-11-09T03:48:41;10.60;87.90
46752;DHT22;32497;48.936;9.270;2022-11-09T03:53:43;10.60;88.30
46752;DHT22;32497;48.936;9.270;2022-11-09T03:58:44;10.60;88.70
46752;DHT22;32497;48.936;9.270;2022-11-09T04:03:45;10.50;88.70
46752;DHT22;32497;48.936;9.270;2022-11-09T04:08:48;10.40;88.80
46752;DHT22;32497;48.936;9.270;2022-11-09T04:13:51;10.20;89.10
46752;DHT22;32497;48.936;9.270;2022-11-09T04:18:52;9.90;90.20
46752;DHT22;32497;48.936;9.270;2022-11-09T04:23:54;9.70;91.30
46752;DHT22;32497;48.936;9.270;2022-11-09T04:28:55;9.70;91.70
46752;DHT22;32497;48.936;9.270;2022-11-09T04:33:57;9.70;91.90
46752;DHT22;32497;48.936;9.270;2022-11-09T04:38:59;9.80;92.10
46752;DHT22;32497;48.936;9.270;2022-11-09T04:44:00;9.90;92.10
46752;DHT22;32497;48.936;9.270;2022-11-09T04:49:01;10.10;92.10
46752;DHT22;32497;48.936;9.270;2022-11-09T04:54:04;10.00;92.00
46752;DHT22;32497;48.936;9.270;2022-11-09T04:59:05;10.10;92.00
46752;DHT22;32497;48.936;9.270;2022-11-09T05:04:06;10.10;91.80
46752;DHT22;32497;48.936;9.270;2022-11-09T05:09:08;10.10;91.90
46752;DHT22;32497;48.936;9.270;2022-11-09T05:14:09;10.00;92.00
46752;DHT22;32497;48.936;9.270;2022-11-09T05:19:10;9.90;92.40
46752;DHT22;32497;48.936;9.270;2022-11-09T05:24:13;9.90;92.70
46752;DHT22;32497;48.936;9.270;2022-11-09T05:29:14;9.90;92.80
46752;DHT22;32497;48.936;9.270;2022-11-09T05:34:15;9.90;92.90
46752;DHT22;32497;48.936;9.270;2022-11-09T05:39:17;10.00;92.80
46752;DHT22;32497;48.936;9.270;2022-11-09T05:44:18;10.00;92.90
46752;DHT22;32497;48.936;9.270;2022-11-09T05:49:20;10.10;93.00
46752;DHT22;32497;48.936;9.270;2022-11-09T05:54:22;10.10;93.00
46752;DHT22;32497;48.936;9.270;2022-11-09T05:59:23;10.20;93.10
46752;DHT22;32497;48.936;9.270;2022-11-09T06:04:24;10.30;93.10
46752;DHT22;32497;48.936;9.270;2022-11-09T06:09:26;10.30;93.10
46752;DHT22;32497;48.936;9.270;2022-11-09T06:14:29;10.30;93.10
46752;DHT22;32497;48.936;9.270;2022-11-09T06:19:30;10.30;93.00
46752;DHT22;32497;48.936;9.270;2022-11-09T06:24:32;10.20;93.10
46752;DHT22;32497;48.936;9.270;2022-11-09T06:29:33;10.20;93.20
46752;DHT22;32497;48.936;9.270;2022-11-09T06:34:34;10.20;93.30
46752;DHT22;32497;48.936;9.270;2022-11-09T06:39:40;10.20;93.40
46752;DHT22;32497;48.936;9.270;2022-11-09T06:44:41;10.40;93.30
46752;DHT22;32497;48.936;9.270;2022-11-09T06:49:42;10.40;93.30
46752;DHT22;32497;48.936;9.270;2022-11-09T06:54:44;10.50;93.20
46752;DHT22;32497;48.936;9.270;2022-11-09T06:59:45;10.50;93.10
46752;DHT22;32497;48.936;9.270;2022-11-09T07:04:47;10.60;93.00
46752;DHT22;32497;48.936;9.270;2022-11-09T07:09:52;10.70;92.80
46752;DHT22;32497;48.936;9.270;2022-11-09T07:14:53;10.70;92.80
46752;DHT22;32497;48.936;9.270;2022-11-09T07:19:54;10.60;92.70
46752;DHT22;32497;48.936;9.270;2022-11-09T07:24:56;10.50;92.80
46752;DHT22;32497;48.936;9.270;2022-11-09T07:29:58;10.40;92.90
46752;DHT22;32497;48.936;9.270;2022-11-09T07:34:59;10.60;92.90
46752;DHT22;32497;48.936;9.270;2022-11-09T07:40:01;10.60;92.80
46752;DHT22;32497;48.936;9.270;2022-11-09T07:45:03;10.50;92.90
46752;DHT22;32497;48.936;9.270;2022-11-09T07:50:05;10.60;93.10
46752;DHT22;32497;48.936;9.270;2022-11-09T07:55:08;10.60;93.00
46752;DHT22;32497;48.936;9.270;2022-11-09T08:00:10;10.50;93.30
46752;DHT22;32497;48.936;9.270;2022-11-09T08:05:14;10.60;93.40
46752;DHT22;32497;48.936;9.270;2022-11-09T08:10:16;10.90;93.20
46752;DHT22;32497;48.936;9.270;2022-11-09T08:15:17;11.10;92.80
46752;DHT22;32497;48.936;9.270;2022-11-09T08:20:19;11.00;92.50
46752;DHT22;32497;48.936;9.270;2022-11-09T08:25:22;11.10;92.30
46752;DHT22;32497;48.936;9.270;2022-11-09T08:30:24;11.10;92.30
46752;DHT22;32497;48.936;9.270;2022-11-09T08:35:25;11.10;92.40
46752;DHT22;32497;48.936;9.270;2022-11-09T08:40:28;11.20;92.50
46752;DHT22;32497;48.936;9.270;2022-11-09T08:45:31;11.20;92.20
46752;DHT22;32497;48.936;9.270;2022-11-09T08:50:34;11.20;92.30
46752;DHT22;32497;48.936;9.270;2022-11-09T08:55:37;11.20;92.30
46752;DHT22;32497;48.936;9.270;2022-11-09T09:00:38;11.40;92.30
46752;DHT22;32497;48.936;9.270;2022-11-09T09:05:39;11.50;92.40
46752;DHT22;32497;48.936;9.270;2022-11-09T09:10:42;11.60;92.30
46752;DHT22;32497;48.936;9.270;2022-11-09T09:15:43;11.60;92.10
46752;DHT22;32497;48.936;9.270;2022-11-09T09:20:44;11.60;92.30
46752;DHT22;32497;48.936;9.270;2022-11-09T09:25:46;11.70;92.20
46752;DHT22;32497;48.936;9.270;2022-11-09T09:30:47;11.70;91.90
46752;DHT22;32497;48.936;9.270;2022-11-09T09:35:48;11.80;92.10
46752;DHT22;32497;48.936;9.270;2022-11-09T09:40:56;11.90;92.10
46752;DHT22;32497;48.936;9.270;2022-11-09T09:45:58;12.00;92.10
46752;DHT22;32497;48.936;9.270;2022-11-09T09:51:03;12.20;91.90
46752;DHT22;32497;48.936;9.270;2022-11-09T09:56:13;12.30;91.70
46752;DHT22;32497;48.936;9.270;2022-11-09T10:01:18;12.30;91.80
46752;DHT22;32497;48.936;9.270;2022-11-09T10:06:37;12.50;91.20
46752;DHT22;32497;48.936;9.270;2022-11-09T10:11:47;12.60;90.40
46752;DHT22;32497;48.936;9.270;2022-11-09T10:17:00;12.70;90.80
46752;DHT22;32497;48.936;9.270;2022-11-09T10:22:09;12.70;90.80
46752;DHT22;32497;48.936;9.270;2022-11-09T10:27:29;12.70;90.90
46752;DHT22;32497;48.936;9.270;2022-11-09T10:32:32;12.80;90.70
46752;DHT22;32497;48.936;9.270;2022-11-09T10:37:37;13.00;90.00
46752;DHT22;32497;48.936;9.270;2022-11-09T10:42:43;13.00;89.40
46752;DHT22;32497;48.936;9.270;2022-11-09T10:48:05;12.90;89.70
46752;DHT22;32497;48.936;9.270;2022-11-09T10:53:26;13.20;89.50
46752;DHT22;32497;48.936;9.270;2022-11-09T10:58:49;13.20;89.10
46752;DHT22;32497;48.936;9.270;2022-11-09T11:04:23;13.40;88.50
46752;DHT22;32497;48.936;9.270;2022-11-09T11:09:43;13.30;88.10
46752;DHT22;32497;48.936;9.270;2022-11-09T11:15:18;13.40;88.60
46752;DHT22;32497;48.936;9.270;2022-11-09T11:20:39;13.60;87.60
46752;DHT22;32497;48.936;9.270;2022-11-09T11:26:11;13.70;87.90
46752;DHT22;32497;48.936;9.270;2022-11-09T11:31:34;13.80;87.60
46752;DHT22;32497;48.936;9.270;2022-11-09T11:37:02;14.10;87.60
46752;DHT22;32497;48.936;9.270;2022-11-09T11:48:51;14.20;86.50
46752;DHT22;32497;48.936;9.270;2022-11-09T11:54:17;14.60;86.10
46752;DHT22;32497;48.936;9.270;2022-11-09T11:59:57;14.60;86.00
46752;DHT22;32497;48.936;9.270;2022-11-09T12:05:35;14.70;85.00
46752;DHT22;32497;48.936;9.270;2022-11-09T12:11:07;14.60;84.90
46752;DHT22;32497;48.936;9.270;2022-11-09T12:16:33;14.80;85.30
46752;DHT22;32497;48.936;9.270;2022-11-09T12:22:04;15.00;84.20
46752;DHT22;32497;48.936;9.270;2022-11-09T12:27:43;14.80;84.50
46752;DHT22;32497;48.936;9.270;2022-11-09T12:33:09;14.70;84.60
46752;DHT22;32497;48.936;9.270;2022-11-09T12:38:37;14.70;85.40
46752;DHT22;32497;48.936;9.270;2022-11-09T12:44:02;14.70;85.10
46752;DHT22;32497;48.936;9.270;2022-11-09T12:49:33;14.60;85.20
46752;DHT22;32497;48.936;9.270;2022-11-09T12:54:55;14.50;85.90
46752;DHT22;32497;48.936;9.270;2022-11-09T13:06:17;14.60;86.70
46752;DHT22;32497;48.936;9.270;2022-11-09T13:11:40;14.70;87.00
46752;DHT22;32497;48.936;9.270;2022-11-09T13:17:01;14.70;87.70
46752;DHT22;32497;48.936;9.270;2022-11-09T13:22:58;14.70;87.60
46752;DHT22;32497;48.936;9.270;2022-11-09T13:28:48;14.50;88.20
46752;DHT22;32497;48.936;9.270;2022-11-09T13:34:41;14.60;87.70
46752;DHT22;32497;48.936;9.270;2022-11-09T13:40:34;14.50;88.60
46752;DHT22;32497;48.936;9.270;2022-11-09T13:45:42;14.60;88.50
46752;DHT22;32497;48.936;9.270;2022-11-09T13:51:06;14.70;88.20
46752;DHT22;32497;48.936;9.270;2022-11-09T13:56:31;14.70;88.20
46752;DHT22;32497;48.936;9.270;2022-11-09T14:01:53;14.90;87.70
46752;DHT22;32497;48.936;9.270;2022-11-09T14:07:20;14.90;87.80
46752;DHT22;32497;48.936;9.270;2022-11-09T14:12:45;15.10;88.30
46752;DHT22;32497;48.936;9.270;2022-11-09T14:23:51;15.10;88.30
46752;DHT22;32497;48.936;9.270;2022-11-09T14:29:20;15.10;88.40
46752;DHT22;32497;48.936;9.270;2022-11-09T14:34:39;15.00;88.50
46752;DHT22;32497;48.936;9.270;2022-11-09T14:40:00;14.80;88.50
46752;DHT22;32497;48.936;9.270;2022-11-09T14:45:20;14.70;88.70
46752;DHT22;32497;48.936;9.270;2022-11-09T14:50:41;14.60;88.80
46752;DHT22;32497;48.936;9.270;2022-11-09T14:56:04;14.50;89.20
46752;DHT22;32497;48.936;9.270;2022-11-09T15:01:25;14.40;89.50
46752;DHT22;32497;48.936;9.270;2022-11-09T15:06:47;14.40;89.60
46752;DHT22;32497;48.936;9.270;2022-11-09T15:12:13;14.30;89.80
46752;DHT22;32497;48.936;9.270;2022-11-09T15:17:35;14.20;90.10
46752;DHT22;32497;48.936;9.270;2022-11-09T15:22:57;14.10;90.60
46752;DHT22;32497;48.936;9.270;2022-11-09T15:28:22;13.90;90.90
46752;DHT22;32497;48.936;9.270;2022-11-09T15:33:47;13.70;91.60
46752;DHT22;32497;48.936;9.270;2022-11-09T15:39:14;13.50;92.00
46752;DHT22;32497;48.936;9.270;2022-11-09T15:44:35;13.40;92.00
46752;DHT22;32497;48.936;9.270;2022-11-09T15:49:56;13.30;92.00
46752;DHT22;32497;48.936;9.270;2022-11-09T15:55:17;13.20;91.90
46752;DHT22;32497;48.936;9.270;2022-11-09T16:00:39;13.10;92.20
46752;DHT22;32497;48.936;9.270;2022-11-09T16:05:58;13.10;92.30
46752;DHT22;32497;48.936;9.270;2022-11-09T16:11:18;13.10;92.20
46752;DHT22;32497;48.936;9.270;2022-11-09T16:16:39;13.00;92.30
46752;DHT22;32497;48.936;9.270;2022-11-09T16:21:58;13.10;92.30
46752;DHT22;32497;48.936;9.270;2022-11-09T16:27:18;12.90;92.20
46752;DHT22;32497;48.936;9.270;2022-11-09T16:32:39;12.80;92.30
46752;DHT22;32497;48.936;9.270;2022-11-09T16:38:01;12.80;92.10
46752;DHT22;32497;48.936;9.270;2022-11-09T16:43:21;12.70;92.10
46752;DHT22;32497;48.936;9.270;2022-11-09T16:48:42;12.70;92.20
46752;DHT22;32497;48.936;9.270;2022-11-09T16:54:02;12.70;92.20
46752;DHT22;32497;48.936;9.270;2022-11-09T16:59:22;12.70;92.10
46752;DHT22;32497;48.936;9.270;2022-11-09T17:04:43;12.70;92.00
46752;DHT22;32497;48.936;9.270;2022-11-09T17:10:02;12.70;92.10
46752;DHT22;32497;48.936;9.270;2022-11-09T17:15:22;12.80;92.00
46752;DHT22;32497;48.936;9.270;2022-11-09T17:20:44;12.70;92.10
46752;DHT22;32497;48.936;9.270;2022-11-09T17:26:06;12.80;92.00
46752;DHT22;32497;48.936;9.270;2022-11-09T17:31:26;12.70;92.00
46752;DHT22;32497;48.936;9.270;2022-11-09T17:36:47;12.70;92.00
46752;DHT22;32497;48.936;9.270;2022-11-09T17:42:06;12.70;92.10
46752;DHT22;32497;48.936;9.270;2022-11-09T17:47:26;12.60;92.30
46752;DHT22;32497;48.936;9.270;2022-11-09T17:52:47;12.60;92.90
46752;DHT22;32497;48.936;9.270;2022-11-09T17:58:06;12.60;92.80
46752;DHT22;32497;48.936;9.270;2022-11-09T18:03:26;12.60;92.80
46752;DHT22;32497;48.936;9.270;2022-11-09T18:08:50;12.50;93.20
46752;DHT22;32497;48.936;9.270;2022-11-09T18:14:10;12.60;93.20
46752;DHT22;32497;48.936;9.270;2022-11-09T18:19:30;12.50;93.20
46752;DHT22;32497;48.936;9.270;2022-11-09T18:24:51;12.40;93.20
46752;DHT22;32497;48.936;9.270;2022-11-09T18:30:11;12.40;93.30
46752;DHT22;32497;48.936;9.270;2022-11-09T18:35:31;12.40;93.40
46752;DHT22;32497;48.936;9.270;2022-11-09T18:41:00;12.30;93.70
46752;DHT22;32497;48.936;9.270;2022-11-09T18:46:20;12.20;93.70
46752;DHT22;32497;48.936;9.270;2022-11-09T18:51:41;12.20;93.70
46752;DHT22;32497;48.936;9.270;2022-11-09T18:57:02;12.20;93.80
46752;DHT22;32497;48.936;9.270;2022-11-09T19:02:22;12.20;93.70
46752;DHT22;32497;48.936;9.270;2022-11-09T19:07:42;12.20;93.60
46752;DHT22;32497;48.936;9.270;2022-11-09T19:13:03;12.20;93.50
46752;DHT22;32497;48.936;9.270;2022-11-09T19:18:22;12.20;93.20
46752;DHT22;32497;48.936;9.270;2022-11-09T19:23:42;12.40;93.20
46752;DHT22;32497;48.936;9.270;2022-11-09T19:29:03;12.40;92.90
46752;DHT22;32497;48.936;9.270;2022-11-09T19:34:23;12.30;93.00
46752;DHT22;32497;48.936;9.270;2022-11-09T19:39:43;12.30;93.10
46752;DHT22;32497;48.936;9.270;2022-11-09T19:45:05;12.20;93.10
46752;DHT22;32497;48.936;9.270;2022-11-09T19:50:24;12.20;93.30
46752;DHT22;32497;48.936;9.270;2022-11-09T19:55:44;12.20;93.30
46752;DHT22;32497;48.936;9.270;2022-11-09T20:01:07;12.20;93.20
46752;DHT22;32497;48.936;9.270;2022-11-09T20:06:27;12.20;93.20
46752;DHT22;32497;48.936;9.270;2022-11-09T20:11:47;12.10;93.00
46752;DHT22;32497;48.936;9.270;2022-11-09T20:17:08;12.10;92.80
46752;DHT22;32497;48.936;9.270;2022-11-09T20:22:27;12.10;92.80
46752;DHT22;32497;48.936;9.270;2022-11-09T20:27:47;12.00;93.10
46752;DHT22;32497;48.936;9.270;2022-11-09T20:33:07;11.90;92.70
46752;DHT22;32497;48.936;9.270;2022-11-09T20:38:27;11.90;92.70
46752;DHT22;32497;48.936;9.270;2022-11-09T20:43:46;11.90;93.00
46752;DHT22;32497;48.936;9.270;2022-11-09T20:49:07;11.90;93.00
46752;DHT22;32497;48.936;9.270;2022-11-09T20:54:27;11.90;92.80
46752;DHT22;32497;48.936;9.270;2022-11-09T20:59:46;11.70;92.60
46752;DHT22;32497;48.936;9.270;2022-11-09T21:05:08;11.70;92.60
46752;DHT22;32497;48.936;9.270;2022-11-09T21:10:27;11.70;92.80
46752;DHT22;32497;48.936;9.270;2022-11-09T21:15:47;11.70;92.90
46752;DHT22;32497;48.936;9.270;2022-11-09T21:21:11;11.70;92.90
46752;DHT22;32497;48.936;9.270;2022-11-09T21:26:31;11.50;92.90
46752;DHT22;32497;48.936;9.270;2022-11-09T21:31:51;11.50;93.00
46752;DHT22;32497;48.936;9.270;2022-11-09T21:37:12;11.40;93.10
46752;DHT22;32497;48.936;9.270;2022-11-09T21:42:31;11.40;93.10
46752;DHT22;32497;48.936;9.270;2022-11-09T21:47:53;11.40;93.10
46752;DHT22;32497;48.936;9.270;2022-11-09T21:53:14;11.40;92.90
46752;DHT22;32497;48.936;9.270;2022-11-09T21:58:33;11.40;92.80
46752;DHT22;32497;48.936;9.270;2022-11-09T22:03:53;11.30;92.80
46752;DHT22;32497;48.936;9.270;2022-11-09T22:09:15;11.30;92.80
46752;DHT22;32497;48.936;9.270;2022-11-09T22:14:35;11.20;92.90
46752;DHT22;32497;48.936;9.270;2022-11-09T22:19:55;11.20;93.00
46752;DHT22;32497;48.936;9.270;2022-11-09T22:25:16;11.20;93.00
46752;DHT22;32497;48.936;9.270;2022-11-09T22:30:35;11.20;93.10
46752;DHT22;32497;48.936;9.270;2022-11-09T22:35:55;11.20;93.00
46752;DHT22;32497;48.936;9.270;2022-11-09T22:41:17;11.20;93.10
46752;DHT22;32497;48.936;9.270;2022-11-09T22:46:36;11.20;93.00
46752;DHT22;32497;48.936;9.270;2022-11-09T22:51:55;11.20;93.00
46752;DHT22;32497;48.936;9.270;2022-11-09T22:57:17;11.20;93.00
46752;DHT22;32497;48.936;9.270;2022-11-09T23:02:36;11.20;93.10
46752;DHT22;32497;48.936;9.270;2022-11-09T23:07:56;11.10;93.00
46752;DHT22;32497;48.936;9.270;2022-11-09T23:13:17;11.10;93.00
46752;DHT22;32497;48.936;9.270;2022-11-09T23:18:37;11.10;93.10
46752;DHT22;32497;48.936;9.270;2022-11-09T23:23:59;11.20;93.10
46752;DHT22;32497;48.936;9.270;2022-11-09T23:29:21;11.10;93.00
46752;DHT22;32497;48.936;9.270;2022-11-09T23:34:40;11.20;93.00
46752;DHT22;32497;48.936;9.270;2022-11-09T23:40:00;11.10;92.90
46752;DHT22;32497;48.936;9.270;2022-11-09T23:45:21;11.20;93.00
46752;DHT22;32497;48.936;9.270;2022-11-09T23:50:40;11.20;93.00
46752;DHT22;32497;48.936;9.270;2022-11-09T23:56:01;11.10;92.90
